sensor_id;sensor_type;location;lat;lon;timestamp;temperature;humidity
13848;DHT22;6994;49.752;6.094;2024-01-30T00:01:14;2.70;99.90
13848;DHT22;6994;49.752;6.094;2024-01-30T00:03:41;2.90;99.90
13848;DHT22;6994;49.752;6.094;2024-01-30T00:06:08;2.90;99.90
13848;DHT22;6994;49.752;6.094;2024-01-30T00:08:36;2.80;99.90
13848;DHT22;6994;49.752;6.094;2024-01-30T00:11:04;2.80;99.90
13848;DHT22;6994;49.752;6.094;2024-01-30T00:13:31;2.70;99.90
13848;DHT22;6994;49.752;6.094;2024-01-30T00:15:58;2.60;99.90
13848;DHT22;6994;49.752;6.094;2024-01-30T00:18:25;2.60;99.90
13848;DHT22;6994;49.752;6.094;2024-01-30T00:20:52;2.50;99.90
13848;DHT22;6994;49.752;6.094;2024-01-30T00:23:20;2.50;99.90
13848;DHT22;6994;49.752;6.094;2024-01-30T00:25:47;2.40;99.90
13848;DHT22;6994;49.752;6.094;2024-01-30T00:28:14;2.40;99.90
13848;DHT22;6994;49.752;6.094;2024-01-30T00:30:41;2.60;99.90
13848;DHT22;6994;49.752;6.094;2024-01-30T00:33:09;2.60;99.90
13848;DHT22;6994;49.752;6.094;2024-01-30T00:35:37;2.50;99.90
13848;DHT22;6994;49.752;6.094;2024-01-30T00:38:04;2.50;99.90
13848;DHT22;6994;49.752;6.094;2024-01-30T00:40:32;2.40;99.90
13848;DHT22;6994;49.752;6.094;2024-01-30T00:42:59;2.40;99.90
13848;DHT22;6994;49.752;6.094;2024-01-30T00:45:26;2.40;99.90
13848;DHT22;6994;49.752;6.094;2024-01-30T00:47:53;2.40;99.90
13848;DHT22;6994;49.752;6.094;2024-01-30T00:50:20;2.60;99.90
13848;DHT22;6994;49.752;6.094;2024-01-30T00:52:48;2.60;99.90
13848;DHT22;6994;49.752;6.094;2024-01-30T00:55:16;2.60;99.90
13848;DHT22;6994;49.752;6.094;2024-01-30T00:57:43;2.60;99.90
13848;DHT22;6994;49.752;6.094;2024-01-30T01:00:12;2.50;99.90
13848;DHT22;6994;49.752;6.094;2024-01-30T01:02:39;2.50;99.90
13848;DHT22;6994;49.752;6.094;2024-01-30T01:05:06;2.70;99.90
13848;DHT22;6994;49.752;6.094;2024-01-30T01:07:33;2.70;99.90
13848;DHT22;6994;49.752;6.094;2024-01-30T01:10:01;2.90;99.90
13848;DHT22;6994;49.752;6.094;2024-01-30T01:12:28;2.90;99.90
13848;DHT22;6994;49.752;6.094;2024-01-30T01:14:55;2.80;99.90
13848;DHT22;6994;49.752;6.094;2024-01-30T01:17:22;2.70;99.90
13848;DHT22;6994;49.752;6.094;2024-01-30T01:19:49;2.60;99.90
13848;DHT22;6994;49.752;6.094;2024-01-30T01:22:17;2.70;99.90
13848;DHT22;6994;49.752;6.094;2024-01-30T01:24:44;3.00;99.90
13848;DHT22;6994;49.752;6.094;2024-01-30T01:27:12;2.80;99.90
13848;DHT22;6994;49.752;6.094;2024-01-30T01:29:40;2.70;99.90
13848;DHT22;6994;49.752;6.094;2024-01-30T01:32:08;2.60;99.90
13848;DHT22;6994;49.752;6.094;2024-01-30T01:34:35;2.60;99.90
13848;DHT22;6994;49.752;6.094;2024-01-30T01:37:02;2.50;99.90
13848;DHT22;6994;49.752;6.094;2024-01-30T01:39:29;2.40;99.90
13848;DHT22;6994;49.752;6.094;2024-01-30T01:41:57;2.60;99.90
13848;DHT22;6994;49.752;6.094;2024-01-30T01:44:24;2.60;99.90
13848;DHT22;6994;49.752;6.094;2024-01-30T01:46:51;2.70;99.90
13848;DHT22;6994;49.752;6.094;2024-01-30T01:49:18;2.70;99.90
13848;DHT22;6994;49.752;6.094;2024-01-30T01:51:46;2.50;99.90
13848;DHT22;6994;49.752;6.094;2024-01-30T01:54:14;2.40;99.90
13848;DHT22;6994;49.752;6.094;2024-01-30T01:56:42;2.30;99.90
13848;DHT22;6994;49.752;6.094;2024-01-30T01:59:09;2.30;99.90
13848;DHT22;6994;49.752;6.094;2024-01-30T02:01:36;2.30;99.90
13848;DHT22;6994;49.752;6.094;2024-01-30T02:04:04;2.20;99.90
13848;DHT22;6994;49.752;6.094;2024-01-30T02:06:31;2.10;99.90
13848;DHT22;6994;49.752;6.094;2024-01-30T02:08:58;2.10;99.90
13848;DHT22;6994;49.752;6.094;2024-01-30T02:11:25;2.10;99.90
13848;DHT22;6994;49.752;6.094;2024-01-30T02:13:53;2.00;99.90
13848;DHT22;6994;49.752;6.094;2024-01-30T02:16:20;1.90;99.90
13848;DHT22;6994;49.752;6.094;2024-01-30T02:18:47;1.90;99.90
13848;DHT22;6994;49.752;6.094;2024-01-30T02:21:15;1.80;99.90
13848;DHT22;6994;49.752;6.094;2024-01-30T02:23:52;1.80;99.90
13848;DHT22;6994;49.752;6.094;2024-01-30T02:26:09;1.80;99.90
13848;DHT22;6994;49.752;6.094;2024-01-30T02:28:37;1.80;99.90
13848;DHT22;6994;49.752;6.094;2024-01-30T02:31:04;1.80;99.90
13848;DHT22;6994;49.752;6.094;2024-01-30T02:33:31;1.80;99.90
13848;DHT22;6994;49.752;6.094;2024-01-30T02:35:58;2.00;99.90
13848;DHT22;6994;49.752;6.094;2024-01-30T02:38:25;2.10;99.90
13848;DHT22;6994;49.752;6.094;2024-01-30T02:40:53;2.10;99.90
13848;DHT22;6994;49.752;6.094;2024-01-30T02:43:21;2.10;99.90
13848;DHT22;6994;49.752;6.094;2024-01-30T02:45:48;2.10;99.90
13848;DHT22;6994;49.752;6.094;2024-01-30T02:48:15;2.10;99.90
13848;DHT22;6994;49.752;6.094;2024-01-30T02:50:42;2.30;99.90
13848;DHT22;6994;49.752;6.094;2024-01-30T02:53:09;2.40;99.90
13848;DHT22;6994;49.752;6.094;2024-01-30T02:55:37;2.30;99.90
13848;DHT22;6994;49.752;6.094;2024-01-30T02:58:04;2.30;99.90
13848;DHT22;6994;49.752;6.094;2024-01-30T03:00:31;2.20;99.90
13848;DHT22;6994;49.752;6.094;2024-01-30T03:02:58;2.10;99.90
13848;DHT22;6994;49.752;6.094;2024-01-30T03:05:26;2.00;99.90
13848;DHT22;6994;49.752;6.094;2024-01-30T03:07:54;2.00;99.90
13848;DHT22;6994;49.752;6.094;2024-01-30T03:10:21;2.00;99.90
13848;DHT22;6994;49.752;6.094;2024-01-30T03:12:49;2.00;99.90
13848;DHT22;6994;49.752;6.094;2024-01-30T03:15:16;2.00;99.90
13848;DHT22;6994;49.752;6.094;2024-01-30T03:17:43;2.20;99.90
13848;DHT22;6994;49.752;6.094;2024-01-30T03:20:10;2.30;99.90
13848;DHT22;6994;49.752;6.094;2024-01-30T03:22:37;2.30;99.90
13848;DHT22;6994;49.752;6.094;2024-01-30T03:25:05;2.30;99.90
13848;DHT22;6994;49.752;6.094;2024-01-30T03:27:32;2.20;99.90
13848;DHT22;6994;49.752;6.094;2024-01-30T03:29:59;2.40;99.90
13848;DHT22;6994;49.752;6.094;2024-01-30T03:32:26;2.50;99.90
13848;DHT22;6994;49.752;6.094;2024-01-30T03:34:54;2.50;99.90
13848;DHT22;6994;49.752;6.094;2024-01-30T03:37:21;2.40;99.90
13848;DHT22;6994;49.752;6.094;2024-01-30T03:39:48;2.30;99.90
13848;DHT22;6994;49.752;6.094;2024-01-30T03:42:15;2.20;99.90
13848;DHT22;6994;49.752;6.094;2024-01-30T03:44:42;2.20;99.90
13848;DHT22;6994;49.752;6.094;2024-01-30T03:47:10;2.10;99.90
13848;DHT22;6994;49.752;6.094;2024-01-30T03:49:37;2.10;99.90
13848;DHT22;6994;49.752;6.094;2024-01-30T03:52:04;2.30;99.90
13848;DHT22;6994;49.752;6.094;2024-01-30T03:54:31;2.30;99.90
13848;DHT22;6994;49.752;6.094;2024-01-30T03:56:58;2.30;99.90
13848;DHT22;6994;49.752;6.094;2024-01-30T03:59:26;2.20;99.90
13848;DHT22;6994;49.752;6.094;2024-01-30T04:01:53;2.10;99.90
13848;DHT22;6994;49.752;6.094;2024-01-30T04:04:20;2.10;99.90
13848;DHT22;6994;49.752;6.094;2024-01-30T04:06:47;2.00;99.90
13848;DHT22;6994;49.752;6.094;2024-01-30T04:09:14;2.20;99.90
13848;DHT22;6994;49.752;6.094;2024-01-30T04:11:42;2.30;99.90
13848;DHT22;6994;49.752;6.094;2024-01-30T04:14:09;2.20;99.90
13848;DHT22;6994;49.752;6.094;2024-01-30T04:16:36;2.20;99.90
13848;DHT22;6994;49.752;6.094;2024-01-30T04:19:03;2.10;99.90
13848;DHT22;6994;49.752;6.094;2024-01-30T04:21:30;2.10;99.90
13848;DHT22;6994;49.752;6.094;2024-01-30T04:23:58;2.00;99.90
13848;DHT22;6994;49.752;6.094;2024-01-30T04:26:25;2.00;99.90
13848;DHT22;6994;49.752;6.094;2024-01-30T04:28:52;1.90;99.90
13848;DHT22;6994;49.752;6.094;2024-01-30T04:31:19;1.90;99.90
13848;DHT22;6994;49.752;6.094;2024-01-30T04:33:47;1.90;99.90
13848;DHT22;6994;49.752;6.094;2024-01-30T04:36:14;1.90;99.90
13848;DHT22;6994;49.752;6.094;2024-01-30T04:38:41;1.90;99.90
13848;DHT22;6994;49.752;6.094;2024-01-30T04:41:08;1.90;99.90
13848;DHT22;6994;49.752;6.094;2024-01-30T04:43:35;2.10;99.90
13848;DHT22;6994;49.752;6.094;2024-01-30T04:46:03;2.20;99.90
13848;DHT22;6994;49.752;6.094;2024-01-30T04:48:30;2.50;99.90
13848;DHT22;6994;49.752;6.094;2024-01-30T04:50:57;2.50;99.90
13848;DHT22;6994;49.752;6.094;2024-01-30T04:53:25;2.40;99.90
13848;DHT22;6994;49.752;6.094;2024-01-30T04:55:52;2.30;99.90
13848;DHT22;6994;49.752;6.094;2024-01-30T04:58:19;2.30;99.90
13848;DHT22;6994;49.752;6.094;2024-01-30T05:00:47;2.20;99.90
13848;DHT22;6994;49.752;6.094;2024-01-30T05:03:14;2.20;99.90
13848;DHT22;6994;49.752;6.094;2024-01-30T05:05:41;2.20;99.90
13848;DHT22;6994;49.752;6.094;2024-01-30T05:08:11;2.30;99.90
13848;DHT22;6994;49.752;6.094;2024-01-30T05:10:38;2.40;99.90
13848;DHT22;6994;49.752;6.094;2024-01-30T05:13:06;2.30;99.90
13848;DHT22;6994;49.752;6.094;2024-01-30T05:15:33;2.30;99.90
13848;DHT22;6994;49.752;6.094;2024-01-30T05:18:00;2.20;99.90
13848;DHT22;6994;49.752;6.094;2024-01-30T05:20:27;2.20;99.90
13848;DHT22;6994;49.752;6.094;2024-01-30T05:22:55;2.10;99.90
13848;DHT22;6994;49.752;6.094;2024-01-30T05:25:22;2.10;99.90
13848;DHT22;6994;49.752;6.094;2024-01-30T05:27:49;2.00;99.90
13848;DHT22;6994;49.752;6.094;2024-01-30T05:30:16;2.00;99.90
13848;DHT22;6994;49.752;6.094;2024-01-30T05:32:43;2.00;99.90
13848;DHT22;6994;49.752;6.094;2024-01-30T05:35:11;1.90;99.90
13848;DHT22;6994;49.752;6.094;2024-01-30T05:37:38;1.90;99.90
13848;DHT22;6994;49.752;6.094;2024-01-30T05:40:05;1.90;99.90
13848;DHT22;6994;49.752;6.094;2024-01-30T05:42:32;1.90;99.90
13848;DHT22;6994;49.752;6.094;2024-01-30T05:45:00;1.90;99.90
13848;DHT22;6994;49.752;6.094;2024-01-30T05:47:27;1.90;99.90
13848;DHT22;6994;49.752;6.094;2024-01-30T05:49:54;1.90;99.90
13848;DHT22;6994;49.752;6.094;2024-01-30T05:52:21;1.90;99.90
13848;DHT22;6994;49.752;6.094;2024-01-30T05:54:49;1.90;99.90
13848;DHT22;6994;49.752;6.094;2024-01-30T05:57:16;1.90;99.90
13848;DHT22;6994;49.752;6.094;2024-01-30T05:59:44;1.90;99.90
13848;DHT22;6994;49.752;6.094;2024-01-30T06:02:11;1.90;99.90
13848;DHT22;6994;49.752;6.094;2024-01-30T06:04:38;1.90;99.90
13848;DHT22;6994;49.752;6.094;2024-01-30T06:07:05;1.90;99.90
13848;DHT22;6994;49.752;6.094;2024-01-30T06:09:33;2.10;99.90
13848;DHT22;6994;49.752;6.094;2024-01-30T06:12:00;2.20;99.90
13848;DHT22;6994;49.752;6.094;2024-01-30T06:14:28;2.20;99.90
13848;DHT22;6994;49.752;6.094;2024-01-30T06:16:56;2.10;99.90
13848;DHT22;6994;49.752;6.094;2024-01-30T06:19:24;2.10;99.90
13848;DHT22;6994;49.752;6.094;2024-01-30T06:21:52;2.10;99.90
13848;DHT22;6994;49.752;6.094;2024-01-30T06:24:19;2.10;99.90
13848;DHT22;6994;49.752;6.094;2024-01-30T06:26:46;2.00;99.90
13848;DHT22;6994;49.752;6.094;2024-01-30T06:29:13;2.00;99.90
13848;DHT22;6994;49.752;6.094;2024-01-30T06:31:40;2.20;99.90
13848;DHT22;6994;49.752;6.094;2024-01-30T06:34:08;2.30;99.90
13848;DHT22;6994;49.752;6.094;2024-01-30T06:36:35;2.30;99.90
13848;DHT22;6994;49.752;6.094;2024-01-30T06:39:03;2.20;99.90
13848;DHT22;6994;49.752;6.094;2024-01-30T06:41:30;2.10;99.90
13848;DHT22;6994;49.752;6.094;2024-01-30T06:43:57;2.10;99.90
13848;DHT22;6994;49.752;6.094;2024-01-30T06:46:24;2.10;99.90
13848;DHT22;6994;49.752;6.094;2024-01-30T06:48:52;2.00;99.90
13848;DHT22;6994;49.752;6.094;2024-01-30T06:51:19;2.00;99.90
13848;DHT22;6994;49.752;6.094;2024-01-30T06:53:46;1.90;99.90
13848;DHT22;6994;49.752;6.094;2024-01-30T06:56:13;1.90;99.90
13848;DHT22;6994;49.752;6.094;2024-01-30T06:58:40;1.90;99.90
13848;DHT22;6994;49.752;6.094;2024-01-30T07:01:08;1.80;99.90
13848;DHT22;6994;49.752;6.094;2024-01-30T07:03:36;1.80;99.90
13848;DHT22;6994;49.752;6.094;2024-01-30T07:06:03;1.70;99.90
13848;DHT22;6994;49.752;6.094;2024-01-30T07:08:30;1.70;99.90
13848;DHT22;6994;49.752;6.094;2024-01-30T07:10:57;1.70;99.90
13848;DHT22;6994;49.752;6.094;2024-01-30T07:13:25;1.70;99.90
13848;DHT22;6994;49.752;6.094;2024-01-30T07:15:52;1.70;99.90
13848;DHT22;6994;49.752;6.094;2024-01-30T07:18:19;1.70;99.90
13848;DHT22;6994;49.752;6.094;2024-01-30T07:20:46;1.90;99.90
13848;DHT22;6994;49.752;6.094;2024-01-30T07:23:13;2.10;99.90
13848;DHT22;6994;49.752;6.094;2024-01-30T07:25:41;2.10;99.90
13848;DHT22;6994;49.752;6.094;2024-01-30T07:28:08;2.10;99.90
13848;DHT22;6994;49.752;6.094;2024-01-30T07:30:38;2.10;99.90
13848;DHT22;6994;49.752;6.094;2024-01-30T07:33:05;2.00;99.90
13848;DHT22;6994;49.752;6.094;2024-01-30T07:35:32;2.00;99.90
13848;DHT22;6994;49.752;6.094;2024-01-30T07:38:00;2.00;99.90
13848;DHT22;6994;49.752;6.094;2024-01-30T07:40:28;2.30;99.90
13848;DHT22;6994;49.752;6.094;2024-01-30T07:42:55;2.30;99.90
13848;DHT22;6994;49.752;6.094;2024-01-30T07:45:22;2.40;99.90
13848;DHT22;6994;49.752;6.094;2024-01-30T07:47:50;2.40;99.90
13848;DHT22;6994;49.752;6.094;2024-01-30T07:50:17;2.40;99.90
13848;DHT22;6994;49.752;6.094;2024-01-30T07:52:44;2.40;99.90
13848;DHT22;6994;49.752;6.094;2024-01-30T07:55:11;2.60;99.90
13848;DHT22;6994;49.752;6.094;2024-01-30T07:57:38;2.70;99.90
13848;DHT22;6994;49.752;6.094;2024-01-30T08:00:06;2.60;99.90
13848;DHT22;6994;49.752;6.094;2024-01-30T08:02:34;2.60;99.90
13848;DHT22;6994;49.752;6.094;2024-01-30T08:05:01;2.60;99.90
13848;DHT22;6994;49.752;6.094;2024-01-30T08:07:28;2.60;99.90
13848;DHT22;6994;49.752;6.094;2024-01-30T08:09:55;2.60;99.90
13848;DHT22;6994;49.752;6.094;2024-01-30T08:12:22;2.60;99.90
13848;DHT22;6994;49.752;6.094;2024-01-30T08:14:50;2.60;99.90
13848;DHT22;6994;49.752;6.094;2024-01-30T08:17:17;2.70;99.90
13848;DHT22;6994;49.752;6.094;2024-01-30T08:19:44;2.70;99.90
13848;DHT22;6994;49.752;6.094;2024-01-30T08:22:11;3.00;99.90
13848;DHT22;6994;49.752;6.094;2024-01-30T08:24:38;3.10;99.90
13848;DHT22;6994;49.752;6.094;2024-01-30T08:27:07;3.20;99.90
13848;DHT22;6994;49.752;6.094;2024-01-30T08:29:35;3.20;99.90
13848;DHT22;6994;49.752;6.094;2024-01-30T08:32:03;3.20;99.90
13848;DHT22;6994;49.752;6.094;2024-01-30T08:34:30;3.20;99.90
13848;DHT22;6994;49.752;6.094;2024-01-30T08:36:57;3.20;99.90
13848;DHT22;6994;49.752;6.094;2024-01-30T08:39:24;3.10;99.90
13848;DHT22;6994;49.752;6.094;2024-01-30T08:41:51;3.40;99.90
13848;DHT22;6994;49.752;6.094;2024-01-30T08:44:18;3.50;99.90
13848;DHT22;6994;49.752;6.094;2024-01-30T08:46:46;3.50;99.90
13848;DHT22;6994;49.752;6.094;2024-01-30T08:49:13;3.50;99.90
13848;DHT22;6994;49.752;6.094;2024-01-30T08:51:41;3.40;99.90
13848;DHT22;6994;49.752;6.094;2024-01-30T08:54:09;3.40;99.90
13848;DHT22;6994;49.752;6.094;2024-01-30T08:56:37;3.40;99.90
13848;DHT22;6994;49.752;6.094;2024-01-30T08:59:05;3.40;99.90
13848;DHT22;6994;49.752;6.094;2024-01-30T09:01:32;3.40;99.90
13848;DHT22;6994;49.752;6.094;2024-01-30T09:03:59;3.50;99.90
13848;DHT22;6994;49.752;6.094;2024-01-30T09:06:26;3.70;99.90
13848;DHT22;6994;49.752;6.094;2024-01-30T09:08:53;3.80;99.90
13848;DHT22;6994;49.752;6.094;2024-01-30T09:11:21;4.10;99.90
13848;DHT22;6994;49.752;6.094;2024-01-30T09:13:48;4.10;99.90
13848;DHT22;6994;49.752;6.094;2024-01-30T09:16:15;4.10;99.90
13848;DHT22;6994;49.752;6.094;2024-01-30T09:18:43;4.10;99.90
13848;DHT22;6994;49.752;6.094;2024-01-30T09:21:11;4.40;99.90
13848;DHT22;6994;49.752;6.094;2024-01-30T09:23:38;4.40;99.90
13848;DHT22;6994;49.752;6.094;2024-01-30T09:26:05;4.50;99.90
13848;DHT22;6994;49.752;6.094;2024-01-30T09:28:33;4.60;99.90
13848;DHT22;6994;49.752;6.094;2024-01-30T09:31:00;4.80;99.90
13848;DHT22;6994;49.752;6.094;2024-01-30T09:33:27;4.90;99.90
13848;DHT22;6994;49.752;6.094;2024-01-30T09:35:54;5.20;99.90
13848;DHT22;6994;49.752;6.094;2024-01-30T09:38:21;5.20;99.90
13848;DHT22;6994;49.752;6.094;2024-01-30T09:40:50;5.10;99.90
13848;DHT22;6994;49.752;6.094;2024-01-30T09:43:16;5.10;99.90
13848;DHT22;6994;49.752;6.094;2024-01-30T09:45:43;5.00;99.90
13848;DHT22;6994;49.752;6.094;2024-01-30T09:48:10;5.00;99.90
13848;DHT22;6994;49.752;6.094;2024-01-30T09:50:38;5.00;99.90
13848;DHT22;6994;49.752;6.094;2024-01-30T09:53:05;5.00;99.90
13848;DHT22;6994;49.752;6.094;2024-01-30T09:55:32;5.00;99.90
13848;DHT22;6994;49.752;6.094;2024-01-30T09:57:59;5.00;99.90
13848;DHT22;6994;49.752;6.094;2024-01-30T10:00:26;5.20;99.90
13848;DHT22;6994;49.752;6.094;2024-01-30T10:02:54;5.50;99.90
13848;DHT22;6994;49.752;6.094;2024-01-30T10:05:21;5.70;99.90
13848;DHT22;6994;49.752;6.094;2024-01-30T10:07:54;6.00;99.90
13848;DHT22;6994;49.752;6.094;2024-01-30T10:10:24;6.10;99.90
13848;DHT22;6994;49.752;6.094;2024-01-30T10:12:51;6.10;99.90
13848;DHT22;6994;49.752;6.094;2024-01-30T10:15:19;6.20;99.90
13848;DHT22;6994;49.752;6.094;2024-01-30T10:17:47;6.20;99.90
13848;DHT22;6994;49.752;6.094;2024-01-30T10:20:15;6.30;99.90
13848;DHT22;6994;49.752;6.094;2024-01-30T10:22:43;6.40;99.90
13848;DHT22;6994;49.752;6.094;2024-01-30T10:25:11;6.70;99.90
13848;DHT22;6994;49.752;6.094;2024-01-30T10:27:42;6.90;99.90
13848;DHT22;6994;49.752;6.094;2024-01-30T10:30:09;6.90;99.90
13848;DHT22;6994;49.752;6.094;2024-01-30T10:32:36;6.90;99.90
13848;DHT22;6994;49.752;6.094;2024-01-30T10:35:04;6.90;99.90
13848;DHT22;6994;49.752;6.094;2024-01-30T10:37:31;6.90;99.90
13848;DHT22;6994;49.752;6.094;2024-01-30T10:39:59;6.90;99.90
13848;DHT22;6994;49.752;6.094;2024-01-30T10:42:25;6.90;99.90
13848;DHT22;6994;49.752;6.094;2024-01-30T10:47:29;6.90;99.90
13848;DHT22;6994;49.752;6.094;2024-01-30T10:49:56;6.90;99.90
13848;DHT22;6994;49.752;6.094;2024-01-30T10:52:23;7.00;99.90
13848;DHT22;6994;49.752;6.094;2024-01-30T10:54:50;7.30;99.90
13848;DHT22;6994;49.752;6.094;2024-01-30T10:57:18;7.40;99.90
13848;DHT22;6994;49.752;6.094;2024-01-30T10:59:45;7.70;99.90
13848;DHT22;6994;49.752;6.094;2024-01-30T11:02:12;7.70;99.90
13848;DHT22;6994;49.752;6.094;2024-01-30T11:04:44;7.70;99.90
13848;DHT22;6994;49.752;6.094;2024-01-30T11:07:18;7.60;99.90
13848;DHT22;6994;49.752;6.094;2024-01-30T11:09:51;7.60;99.90
13848;DHT22;6994;49.752;6.094;2024-01-30T11:12:24;7.50;99.90
13848;DHT22;6994;49.752;6.094;2024-01-30T11:15:04;7.50;99.90
13848;DHT22;6994;49.752;6.094;2024-01-30T11:20:20;7.60;99.90
13848;DHT22;6994;49.752;6.094;2024-01-30T11:22:47;7.60;99.90
13848;DHT22;6994;49.752;6.094;2024-01-30T11:25:17;7.70;99.90
13848;DHT22;6994;49.752;6.094;2024-01-30T11:27:44;7.80;99.90
13848;DHT22;6994;49.752;6.094;2024-01-30T11:30:24;8.10;99.90
13848;DHT22;6994;49.752;6.094;2024-01-30T11:32:57;8.10;99.90
13848;DHT22;6994;49.752;6.094;2024-01-30T11:35:15;8.30;99.90
13848;DHT22;6994;49.752;6.094;2024-01-30T11:37:42;8.50;99.90
13848;DHT22;6994;49.752;6.094;2024-01-30T11:40:09;9.00;99.90
13848;DHT22;6994;49.752;6.094;2024-01-30T11:42:37;9.20;99.90
13848;DHT22;6994;49.752;6.094;2024-01-30T11:45:04;9.50;99.90
13848;DHT22;6994;49.752;6.094;2024-01-30T11:47:31;9.70;99.90
13848;DHT22;6994;49.752;6.094;2024-01-30T11:49:58;10.20;99.90
13848;DHT22;6994;49.752;6.094;2024-01-30T11:52:25;10.60;99.90
13848;DHT22;6994;49.752;6.094;2024-01-30T11:54:53;11.30;99.90
13848;DHT22;6994;49.752;6.094;2024-01-30T11:57:20;11.60;99.90
13848;DHT22;6994;49.752;6.094;2024-01-30T11:59:47;11.70;99.90
13848;DHT22;6994;49.752;6.094;2024-01-30T12:02:17;11.80;99.90
13848;DHT22;6994;49.752;6.094;2024-01-30T12:04:44;11.80;99.90
13848;DHT22;6994;49.752;6.094;2024-01-30T12:07:11;11.70;99.90
13848;DHT22;6994;49.752;6.094;2024-01-30T12:09:38;11.70;99.90
13848;DHT22;6994;49.752;6.094;2024-01-30T12:12:06;11.60;99.90
13848;DHT22;6994;49.752;6.094;2024-01-30T12:14:34;11.60;99.90
13848;DHT22;6994;49.752;6.094;2024-01-30T12:17:01;11.50;99.90
13848;DHT22;6994;49.752;6.094;2024-01-30T12:19:28;11.40;99.90
13848;DHT22;6994;49.752;6.094;2024-01-30T12:21:58;11.30;99.90
13848;DHT22;6994;49.752;6.094;2024-01-30T12:24:28;11.20;99.90
13848;DHT22;6994;49.752;6.094;2024-01-30T12:26:58;11.50;99.90
13848;DHT22;6994;49.752;6.094;2024-01-30T12:29:25;11.80;99.90
13848;DHT22;6994;49.752;6.094;2024-01-30T12:31:55;11.70;99.90
13848;DHT22;6994;49.752;6.094;2024-01-30T12:34:24;11.60;99.90
13848;DHT22;6994;49.752;6.094;2024-01-30T12:36:51;11.50;99.90
13848;DHT22;6994;49.752;6.094;2024-01-30T12:39:18;11.50;99.90
13848;DHT22;6994;49.752;6.094;2024-01-30T12:41:46;11.40;99.90
13848;DHT22;6994;49.752;6.094;2024-01-30T12:44:13;11.40;99.90
13848;DHT22;6994;49.752;6.094;2024-01-30T12:46:40;11.60;99.90
13848;DHT22;6994;49.752;6.094;2024-01-30T12:49:07;11.60;99.90
13848;DHT22;6994;49.752;6.094;2024-01-30T12:51:34;11.50;99.90
13848;DHT22;6994;49.752;6.094;2024-01-30T12:54:05;11.40;99.90
13848;DHT22;6994;49.752;6.094;2024-01-30T12:56:29;11.30;99.90
13848;DHT22;6994;49.752;6.094;2024-01-30T12:58:56;11.60;99.90
13848;DHT22;6994;49.752;6.094;2024-01-30T13:01:23;11.60;99.90
13848;DHT22;6994;49.752;6.094;2024-01-30T13:03:50;11.50;99.90
13848;DHT22;6994;49.752;6.094;2024-01-30T13:06:18;11.50;99.90
13848;DHT22;6994;49.752;6.094;2024-01-30T13:08:45;11.40;99.90
13848;DHT22;6994;49.752;6.094;2024-01-30T13:11:12;11.40;99.90
13848;DHT22;6994;49.752;6.094;2024-01-30T13:13:39;11.30;99.90
13848;DHT22;6994;49.752;6.094;2024-01-30T13:16:06;11.60;99.90
13848;DHT22;6994;49.752;6.094;2024-01-30T13:18:34;11.70;99.90
13848;DHT22;6994;49.752;6.094;2024-01-30T13:21:01;11.70;99.90
13848;DHT22;6994;49.752;6.094;2024-01-30T13:23:28;11.70;99.90
13848;DHT22;6994;49.752;6.094;2024-01-30T13:25:56;11.70;99.90
13848;DHT22;6994;49.752;6.094;2024-01-30T13:28:23;11.70;99.90
13848;DHT22;6994;49.752;6.094;2024-01-30T13:30:51;11.80;99.90
13848;DHT22;6994;49.752;6.094;2024-01-30T13:33:18;11.80;99.90
13848;DHT22;6994;49.752;6.094;2024-01-30T13:35:45;12.10;99.90
13848;DHT22;6994;49.752;6.094;2024-01-30T13:38:12;12.20;99.90
13848;DHT22;6994;49.752;6.094;2024-01-30T13:40:39;12.20;99.90
13848;DHT22;6994;49.752;6.094;2024-01-30T13:43:07;12.20;99.90
13848;DHT22;6994;49.752;6.094;2024-01-30T13:45:34;12.20;99.90
13848;DHT22;6994;49.752;6.094;2024-01-30T13:48:01;12.10;99.90
13848;DHT22;6994;49.752;6.094;2024-01-30T13:50:29;12.10;99.90
13848;DHT22;6994;49.752;6.094;2024-01-30T13:52:56;12.10;99.90
13848;DHT22;6994;49.752;6.094;2024-01-30T13:55:23;12.10;99.90
13848;DHT22;6994;49.752;6.094;2024-01-30T13:57:51;12.40;99.90
13848;DHT22;6994;49.752;6.094;2024-01-30T14:00:18;12.70;99.90
13848;DHT22;6994;49.752;6.094;2024-01-30T14:02:45;12.60;99.90
13848;DHT22;6994;49.752;6.094;2024-01-30T14:05:12;12.50;99.90
13848;DHT22;6994;49.752;6.094;2024-01-30T14:07:39;12.40;99.90
13848;DHT22;6994;49.752;6.094;2024-01-30T14:10:07;12.40;99.90
13848;DHT22;6994;49.752;6.094;2024-01-30T14:12:34;12.30;99.90
13848;DHT22;6994;49.752;6.094;2024-01-30T14:15:01;12.30;99.90
13848;DHT22;6994;49.752;6.094;2024-01-30T14:17:28;12.20;99.90
13848;DHT22;6994;49.752;6.094;2024-01-30T14:19:56;12.20;99.90
13848;DHT22;6994;49.752;6.094;2024-01-30T14:22:23;12.10;99.90
13848;DHT22;6994;49.752;6.094;2024-01-30T14:24:51;12.20;99.90
13848;DHT22;6994;49.752;6.094;2024-01-30T14:27:18;12.10;99.90
13848;DHT22;6994;49.752;6.094;2024-01-30T14:29:45;12.30;99.90
13848;DHT22;6994;49.752;6.094;2024-01-30T14:32:12;12.30;99.90
13848;DHT22;6994;49.752;6.094;2024-01-30T14:34:39;12.20;99.90
13848;DHT22;6994;49.752;6.094;2024-01-30T14:37:07;12.20;99.90
13848;DHT22;6994;49.752;6.094;2024-01-30T14:39:34;12.30;99.90
13848;DHT22;6994;49.752;6.094;2024-01-30T14:42:01;12.40;99.90
13848;DHT22;6994;49.752;6.094;2024-01-30T14:44:28;12.30;99.90
13848;DHT22;6994;49.752;6.094;2024-01-30T14:46:56;12.30;99.90
13848;DHT22;6994;49.752;6.094;2024-01-30T14:49:23;12.20;99.90
13848;DHT22;6994;49.752;6.094;2024-01-30T14:51:51;12.10;99.90
13848;DHT22;6994;49.752;6.094;2024-01-30T14:54:19;12.10;99.90
13848;DHT22;6994;49.752;6.094;2024-01-30T14:56:46;12.10;99.90
13848;DHT22;6994;49.752;6.094;2024-01-30T14:59:13;12.10;99.90
13848;DHT22;6994;49.752;6.094;2024-01-30T15:01:40;12.00;99.90
13848;DHT22;6994;49.752;6.094;2024-01-30T15:04:07;12.00;99.90
13848;DHT22;6994;49.752;6.094;2024-01-30T15:06:35;12.20;99.90
13848;DHT22;6994;49.752;6.094;2024-01-30T15:09:02;12.20;99.90
13848;DHT22;6994;49.752;6.094;2024-01-30T15:11:29;12.20;99.90
13848;DHT22;6994;49.752;6.094;2024-01-30T15:13:56;12.20;99.90
13848;DHT22;6994;49.752;6.094;2024-01-30T15:16:23;12.10;99.90
13848;DHT22;6994;49.752;6.094;2024-01-30T15:18:51;12.00;99.90
13848;DHT22;6994;49.752;6.094;2024-01-30T15:21:19;11.90;99.90
13848;DHT22;6994;49.752;6.094;2024-01-30T15:23:46;11.90;99.90
13848;DHT22;6994;49.752;6.094;2024-01-30T15:26:14;11.90;99.90
13848;DHT22;6994;49.752;6.094;2024-01-30T15:28:40;11.90;99.90
13848;DHT22;6994;49.752;6.094;2024-01-30T15:31:07;11.80;99.90
13848;DHT22;6994;49.752;6.094;2024-01-30T15:33:35;11.80;99.90
13848;DHT22;6994;49.752;6.094;2024-01-30T15:36:02;11.80;99.90
13848;DHT22;6994;49.752;6.094;2024-01-30T15:38:29;11.80;99.90
13848;DHT22;6994;49.752;6.094;2024-01-30T15:40:56;11.70;99.90
13848;DHT22;6994;49.752;6.094;2024-01-30T15:43:23;11.70;99.90
13848;DHT22;6994;49.752;6.094;2024-01-30T15:45:51;11.70;99.90
13848;DHT22;6994;49.752;6.094;2024-01-30T15:48:18;11.70;99.90
13848;DHT22;6994;49.752;6.094;2024-01-30T15:50:45;11.70;99.90
13848;DHT22;6994;49.752;6.094;2024-01-30T15:53:12;11.70;99.90
13848;DHT22;6994;49.752;6.094;2024-01-30T15:55:39;11.60;99.90
13848;DHT22;6994;49.752;6.094;2024-01-30T15:58:07;11.60;99.90
13848;DHT22;6994;49.752;6.094;2024-01-30T16:00:34;11.60;99.90
13848;DHT22;6994;49.752;6.094;2024-01-30T16:03:01;11.80;99.90